KPNS/PNS METAR and TAF weather

Enter ICAO airport designator
Station Type Date Time Source
KPNS METAR 2019/11/14 03:53 UTC NOAA

KPNS 140353Z 05006KT 10SM CLR 09/01 A3024 RMK AO2 SLP242 T00890011 $


Station Type Date Time Source
KPNS Decoded METAR 2019/11/14 03:53 UTC NOAA

PENSACOLA REGIONAL AIRPORT, FL, United States (KPNS) 30-29N 087-11W 38M
Nov 13, 2019 - 10:53 PM EST / 2019.11.14 0353 UTC
Wind: from the NE (050 degrees) at 7 MPH (6 KT):0
Visibility: 10 mile(s):0
Sky conditions: clear
Temperature: 48.0 F (8.9 C)
Dew Point: 34.0 F (1.1 C)
Relative Humidity: 58%
Pressure (altimeter): 30.24 in. Hg (1024 hPa)
ob: KPNS 140353Z 05006KT 10SM CLR 09/01 A3024 RMK AO2 SLP242 T00890011
cycle: 4

Station Type Date Time Source
KPNS TAF 2019/11/13 18:45 UTC NOAA

TAF KPNS 131745Z 1318/1418 06007KT P6SM SKC
FM140000 04005KT P6SM BKN250
FM141500 01009KT P6SM OVC150

Example: see airport list